sensor_id;sensor_type;location;lat;lon;timestamp;P1;durP1;ratioP1;P2;durP2;ratioP2
23390;SDS011;11868;45.606;5.302;2023-07-31T00:01:24;3.70;;;1.70;;
23390;SDS011;11868;45.606;5.302;2023-07-31T00:03:50;5.28;;;1.70;;
23390;SDS011;11868;45.606;5.302;2023-07-31T00:06:15;5.28;;;1.80;;
23390;SDS011;11868;45.606;5.302;2023-07-31T00:08:40;3.90;;;1.92;;
23390;SDS011;11868;45.606;5.302;2023-07-31T00:11:06;8.35;;;1.83;;
23390;SDS011;11868;45.606;5.302;2023-07-31T00:13:31;5.47;;;1.63;;
23390;SDS011;11868;45.606;5.302;2023-07-31T00:15:56;4.93;;;1.48;;
23390;SDS011;11868;45.606;5.302;2023-07-31T00:18:22;3.92;;;1.67;;
23390;SDS011;11868;45.606;5.302;2023-07-31T00:20:47;4.40;;;1.63;;
23390;SDS011;11868;45.606;5.302;2023-07-31T00:23:12;4.88;;;1.83;;
23390;SDS011;11868;45.606;5.302;2023-07-31T00:25:38;4.22;;;1.90;;
23390;SDS011;11868;45.606;5.302;2023-07-31T00:28:03;5.22;;;1.70;;
23390;SDS011;11868;45.606;5.302;2023-07-31T00:30:29;6.00;;;1.90;;
23390;SDS011;11868;45.606;5.302;2023-07-31T00:32:54;6.72;;;1.95;;
23390;SDS011;11868;45.606;5.302;2023-07-31T00:35:19;3.63;;;1.65;;
23390;SDS011;11868;45.606;5.302;2023-07-31T00:37:45;10.43;;;2.33;;
23390;SDS011;11868;45.606;5.302;2023-07-31T00:40:10;7.18;;;1.92;;
23390;SDS011;11868;45.606;5.302;2023-07-31T00:42:36;4.55;;;1.60;;
23390;SDS011;11868;45.606;5.302;2023-07-31T00:45:01;4.35;;;1.70;;
23390;SDS011;11868;45.606;5.302;2023-07-31T00:47:26;4.78;;;1.63;;
23390;SDS011;11868;45.606;5.302;2023-07-31T00:49:52;4.57;;;1.90;;
23390;SDS011;11868;45.606;5.302;2023-07-31T00:52:18;4.53;;;1.70;;
23390;SDS011;11868;45.606;5.302;2023-07-31T00:54:43;7.82;;;1.80;;
23390;SDS011;11868;45.606;5.302;2023-07-31T00:57:09;5.45;;;2.10;;
23390;SDS011;11868;45.606;5.302;2023-07-31T00:59:34;6.65;;;1.85;;
23390;SDS011;11868;45.606;5.302;2023-07-31T01:02:00;5.10;;;1.83;;
23390;SDS011;11868;45.606;5.302;2023-07-31T01:04:25;6.80;;;1.65;;
23390;SDS011;11868;45.606;5.302;2023-07-31T01:12:02;4.28;;;1.77;;
23390;SDS011;11868;45.606;5.302;2023-07-31T01:14:28;4.65;;;1.73;;
23390;SDS011;11868;45.606;5.302;2023-07-31T01:16:54;6.68;;;2.00;;
23390;SDS011;11868;45.606;5.302;2023-07-31T01:19:21;8.35;;;1.63;;
23390;SDS011;11868;45.606;5.302;2023-07-31T01:27:34;6.32;;;1.80;;
23390;SDS011;11868;45.606;5.302;2023-07-31T01:32:35;5.88;;;1.63;;
23390;SDS011;11868;45.606;5.302;2023-07-31T01:35:01;4.68;;;1.88;;
23390;SDS011;11868;45.606;5.302;2023-07-31T01:37:28;5.88;;;2.38;;
23390;SDS011;11868;45.606;5.302;2023-07-31T01:39:56;4.97;;;2.08;;
23390;SDS011;11868;45.606;5.302;2023-07-31T01:42:21;6.60;;;2.17;;
23390;SDS011;11868;45.606;5.302;2023-07-31T01:44:47;4.60;;;1.98;;
23390;SDS011;11868;45.606;5.302;2023-07-31T01:47:12;6.13;;;1.95;;
23390;SDS011;11868;45.606;5.302;2023-07-31T01:49:37;8.70;;;1.98;;
23390;SDS011;11868;45.606;5.302;2023-07-31T01:52:03;5.65;;;1.60;;
23390;SDS011;11868;45.606;5.302;2023-07-31T01:54:28;3.97;;;1.58;;
23390;SDS011;11868;45.606;5.302;2023-07-31T01:56:53;4.95;;;2.03;;
23390;SDS011;11868;45.606;5.302;2023-07-31T01:59:19;4.47;;;1.95;;
23390;SDS011;11868;45.606;5.302;2023-07-31T02:01:44;5.15;;;1.50;;
23390;SDS011;11868;45.606;5.302;2023-07-31T02:04:09;3.22;;;1.40;;
23390;SDS011;11868;45.606;5.302;2023-07-31T02:06:35;4.60;;;1.58;;
23390;SDS011;11868;45.606;5.302;2023-07-31T02:09:00;9.73;;;2.10;;
23390;SDS011;11868;45.606;5.302;2023-07-31T02:11:25;6.55;;;1.83;;
23390;SDS011;11868;45.606;5.302;2023-07-31T02:13:51;3.60;;;1.60;;
23390;SDS011;11868;45.606;5.302;2023-07-31T02:16:16;5.00;;;1.88;;
23390;SDS011;11868;45.606;5.302;2023-07-31T02:18:41;7.30;;;2.05;;
23390;SDS011;11868;45.606;5.302;2023-07-31T02:21:07;4.35;;;1.80;;
23390;SDS011;11868;45.606;5.302;2023-07-31T02:23:32;4.18;;;1.98;;
23390;SDS011;11868;45.606;5.302;2023-07-31T02:25:57;6.57;;;1.90;;
23390;SDS011;11868;45.606;5.302;2023-07-31T02:28:23;8.00;;;1.98;;
23390;SDS011;11868;45.606;5.302;2023-07-31T02:30:50;4.25;;;1.70;;
23390;SDS011;11868;45.606;5.302;2023-07-31T02:33:16;7.97;;;2.33;;
23390;SDS011;11868;45.606;5.302;2023-07-31T02:35:41;8.60;;;1.90;;
23390;SDS011;11868;45.606;5.302;2023-07-31T02:38:07;3.95;;;1.60;;
23390;SDS011;11868;45.606;5.302;2023-07-31T02:40:32;5.57;;;1.95;;
23390;SDS011;11868;45.606;5.302;2023-07-31T02:42:57;4.30;;;2.13;;
23390;SDS011;11868;45.606;5.302;2023-07-31T02:45:22;5.88;;;2.38;;
23390;SDS011;11868;45.606;5.302;2023-07-31T02:47:48;7.25;;;1.90;;
23390;SDS011;11868;45.606;5.302;2023-07-31T02:50:13;3.15;;;1.70;;
23390;SDS011;11868;45.606;5.302;2023-07-31T02:52:39;5.03;;;2.03;;
23390;SDS011;11868;45.606;5.302;2023-07-31T02:55:04;5.57;;;1.63;;
23390;SDS011;11868;45.606;5.302;2023-07-31T02:57:30;3.08;;;1.67;;
23390;SDS011;11868;45.606;5.302;2023-07-31T02:59:56;5.72;;;1.80;;
23390;SDS011;11868;45.606;5.302;2023-07-31T03:02:21;4.32;;;1.88;;
23390;SDS011;11868;45.606;5.302;2023-07-31T03:04:46;4.38;;;1.88;;
23390;SDS011;11868;45.606;5.302;2023-07-31T03:07:12;6.00;;;1.70;;
23390;SDS011;11868;45.606;5.302;2023-07-31T03:09:37;4.95;;;2.22;;
23390;SDS011;11868;45.606;5.302;2023-07-31T03:12:02;6.03;;;2.03;;
23390;SDS011;11868;45.606;5.302;2023-07-31T03:14:28;2.97;;;1.75;;
23390;SDS011;11868;45.606;5.302;2023-07-31T03:16:53;5.78;;;1.65;;
23390;SDS011;11868;45.606;5.302;2023-07-31T03:19:19;5.28;;;1.98;;
23390;SDS011;11868;45.606;5.302;2023-07-31T03:21:44;5.70;;;2.00;;
23390;SDS011;11868;45.606;5.302;2023-07-31T03:24:10;6.70;;;2.00;;
23390;SDS011;11868;45.606;5.302;2023-07-31T03:26:37;5.50;;;2.08;;
23390;SDS011;11868;45.606;5.302;2023-07-31T03:29:03;8.13;;;1.80;;
23390;SDS011;11868;45.606;5.302;2023-07-31T03:31:28;4.18;;;1.55;;
23390;SDS011;11868;45.606;5.302;2023-07-31T03:33:53;4.65;;;1.88;;
23390;SDS011;11868;45.606;5.302;2023-07-31T03:36:19;7.63;;;2.03;;
23390;SDS011;11868;45.606;5.302;2023-07-31T03:38:45;6.28;;;1.90;;
23390;SDS011;11868;45.606;5.302;2023-07-31T03:41:11;6.82;;;2.10;;
23390;SDS011;11868;45.606;5.302;2023-07-31T03:43:36;5.13;;;2.15;;
23390;SDS011;11868;45.606;5.302;2023-07-31T03:46:02;4.32;;;1.88;;
23390;SDS011;11868;45.606;5.302;2023-07-31T03:48:28;7.35;;;2.25;;
23390;SDS011;11868;45.606;5.302;2023-07-31T03:50:53;5.25;;;1.95;;
23390;SDS011;11868;45.606;5.302;2023-07-31T03:53:19;4.38;;;1.70;;
23390;SDS011;11868;45.606;5.302;2023-07-31T03:55:45;4.60;;;1.80;;
23390;SDS011;11868;45.606;5.302;2023-07-31T03:58:10;4.53;;;1.83;;
23390;SDS011;11868;45.606;5.302;2023-07-31T04:00:35;5.40;;;1.58;;
23390;SDS011;11868;45.606;5.302;2023-07-31T04:03:01;5.68;;;2.13;;
23390;SDS011;11868;45.606;5.302;2023-07-31T04:05:26;3.45;;;1.88;;
23390;SDS011;11868;45.606;5.302;2023-07-31T04:07:51;5.93;;;1.80;;
23390;SDS011;11868;45.606;5.302;2023-07-31T04:10:17;7.10;;;2.60;;
23390;SDS011;11868;45.606;5.302;2023-07-31T04:12:42;4.10;;;2.00;;
23390;SDS011;11868;45.606;5.302;2023-07-31T04:15:08;4.43;;;2.03;;
23390;SDS011;11868;45.606;5.302;2023-07-31T04:17:33;8.32;;;2.00;;
23390;SDS011;11868;45.606;5.302;2023-07-31T04:19:59;4.20;;;1.65;;
23390;SDS011;11868;45.606;5.302;2023-07-31T04:22:24;7.43;;;2.33;;
23390;SDS011;11868;45.606;5.302;2023-07-31T04:24:49;4.97;;;1.92;;
23390;SDS011;11868;45.606;5.302;2023-07-31T04:27:15;4.70;;;2.13;;
23390;SDS011;11868;45.606;5.302;2023-07-31T04:29:40;7.93;;;2.20;;
23390;SDS011;11868;45.606;5.302;2023-07-31T04:32:07;3.70;;;1.75;;
23390;SDS011;11868;45.606;5.302;2023-07-31T04:34:33;7.00;;;2.67;;
23390;SDS011;11868;45.606;5.302;2023-07-31T04:36:58;3.67;;;1.70;;
23390;SDS011;11868;45.606;5.302;2023-07-31T04:39:23;5.82;;;1.77;;
23390;SDS011;11868;45.606;5.302;2023-07-31T04:41:49;6.00;;;2.20;;
23390;SDS011;11868;45.606;5.302;2023-07-31T04:44:14;5.45;;;2.13;;
23390;SDS011;11868;45.606;5.302;2023-07-31T04:46:39;6.18;;;2.38;;
23390;SDS011;11868;45.606;5.302;2023-07-31T04:49:05;4.57;;;1.95;;
23390;SDS011;11868;45.606;5.302;2023-07-31T04:51:30;5.15;;;1.83;;
23390;SDS011;11868;45.606;5.302;2023-07-31T04:53:56;4.53;;;2.22;;
23390;SDS011;11868;45.606;5.302;2023-07-31T04:56:21;6.90;;;2.10;;
23390;SDS011;11868;45.606;5.302;2023-07-31T04:58:46;11.52;;;2.40;;
23390;SDS011;11868;45.606;5.302;2023-07-31T05:01:12;8.20;;;2.30;;
23390;SDS011;11868;45.606;5.302;2023-07-31T05:03:37;5.55;;;1.77;;
23390;SDS011;11868;45.606;5.302;2023-07-31T05:06:03;5.75;;;2.25;;
23390;SDS011;11868;45.606;5.302;2023-07-31T05:08:28;3.90;;;2.25;;
23390;SDS011;11868;45.606;5.302;2023-07-31T05:10:53;6.22;;;2.30;;
23390;SDS011;11868;45.606;5.302;2023-07-31T05:13:19;5.47;;;2.10;;
23390;SDS011;11868;45.606;5.302;2023-07-31T05:15:44;5.95;;;2.30;;
23390;SDS011;11868;45.606;5.302;2023-07-31T05:18:10;5.65;;;2.05;;
23390;SDS011;11868;45.606;5.302;2023-07-31T05:20:35;4.78;;;1.83;;
23390;SDS011;11868;45.606;5.302;2023-07-31T05:23:01;5.72;;;2.08;;
23390;SDS011;11868;45.606;5.302;2023-07-31T05:25:26;7.65;;;2.25;;
23390;SDS011;11868;45.606;5.302;2023-07-31T05:27:51;11.48;;;2.33;;
23390;SDS011;11868;45.606;5.302;2023-07-31T05:30:17;8.10;;;2.55;;
23390;SDS011;11868;45.606;5.302;2023-07-31T05:32:42;5.22;;;2.28;;
23390;SDS011;11868;45.606;5.302;2023-07-31T05:35:07;8.73;;;2.22;;
23390;SDS011;11868;45.606;5.302;2023-07-31T05:37:34;7.40;;;2.25;;
23390;SDS011;11868;45.606;5.302;2023-07-31T05:39:59;4.82;;;2.00;;
23390;SDS011;11868;45.606;5.302;2023-07-31T05:42:24;6.15;;;2.28;;
23390;SDS011;11868;45.606;5.302;2023-07-31T05:44:50;4.43;;;2.60;;
23390;SDS011;11868;45.606;5.302;2023-07-31T05:47:15;4.85;;;1.90;;
23390;SDS011;11868;45.606;5.302;2023-07-31T05:49:40;4.85;;;2.33;;
23390;SDS011;11868;45.606;5.302;2023-07-31T05:52:06;6.55;;;1.85;;
23390;SDS011;11868;45.606;5.302;2023-07-31T05:54:32;7.35;;;2.22;;
23390;SDS011;11868;45.606;5.302;2023-07-31T05:56:57;7.30;;;2.17;;
23390;SDS011;11868;45.606;5.302;2023-07-31T05:59:23;5.10;;;1.90;;
23390;SDS011;11868;45.606;5.302;2023-07-31T06:01:48;8.18;;;2.28;;
23390;SDS011;11868;45.606;5.302;2023-07-31T06:04:13;7.32;;;1.95;;
23390;SDS011;11868;45.606;5.302;2023-07-31T06:06:39;5.25;;;2.20;;
23390;SDS011;11868;45.606;5.302;2023-07-31T06:09:04;12.05;;;2.45;;
23390;SDS011;11868;45.606;5.302;2023-07-31T06:11:30;7.97;;;2.20;;
23390;SDS011;11868;45.606;5.302;2023-07-31T06:13:56;4.50;;;2.20;;
23390;SDS011;11868;45.606;5.302;2023-07-31T06:16:21;9.57;;;2.17;;
23390;SDS011;11868;45.606;5.302;2023-07-31T06:18:47;6.57;;;2.38;;
23390;SDS011;11868;45.606;5.302;2023-07-31T06:21:12;7.55;;;1.80;;
23390;SDS011;11868;45.606;5.302;2023-07-31T06:23:38;6.70;;;2.42;;
23390;SDS011;11868;45.606;5.302;2023-07-31T06:26:03;6.82;;;2.15;;
23390;SDS011;11868;45.606;5.302;2023-07-31T06:28:29;5.93;;;2.38;;
23390;SDS011;11868;45.606;5.302;2023-07-31T06:30:54;5.05;;;2.10;;
23390;SDS011;11868;45.606;5.302;2023-07-31T06:33:20;4.07;;;1.75;;
23390;SDS011;11868;45.606;5.302;2023-07-31T06:35:45;10.00;;;2.45;;
23390;SDS011;11868;45.606;5.302;2023-07-31T06:38:11;8.00;;;2.60;;
23390;SDS011;11868;45.606;5.302;2023-07-31T06:40:36;7.03;;;2.25;;
23390;SDS011;11868;45.606;5.302;2023-07-31T06:43:01;10.32;;;2.55;;
23390;SDS011;11868;45.606;5.302;2023-07-31T06:45:32;4.60;;;2.47;;
23390;SDS011;11868;45.606;5.302;2023-07-31T06:48:01;6.55;;;2.30;;
23390;SDS011;11868;45.606;5.302;2023-07-31T06:50:33;6.85;;;2.70;;
23390;SDS011;11868;45.606;5.302;2023-07-31T06:52:59;5.75;;;2.33;;
23390;SDS011;11868;45.606;5.302;2023-07-31T06:55:25;7.10;;;2.40;;
23390;SDS011;11868;45.606;5.302;2023-07-31T06:57:51;5.65;;;2.22;;
23390;SDS011;11868;45.606;5.302;2023-07-31T07:00:17;6.47;;;2.17;;
23390;SDS011;11868;45.606;5.302;2023-07-31T07:02:43;6.70;;;2.05;;
23390;SDS011;11868;45.606;5.302;2023-07-31T07:05:09;8.82;;;2.28;;
23390;SDS011;11868;45.606;5.302;2023-07-31T07:07:35;10.27;;;2.45;;
23390;SDS011;11868;45.606;5.302;2023-07-31T07:10:00;6.82;;;2.30;;
23390;SDS011;11868;45.606;5.302;2023-07-31T07:12:26;7.47;;;2.50;;
23390;SDS011;11868;45.606;5.302;2023-07-31T07:14:54;5.60;;;2.40;;
23390;SDS011;11868;45.606;5.302;2023-07-31T07:17:19;4.85;;;2.40;;
23390;SDS011;11868;45.606;5.302;2023-07-31T07:19:45;6.22;;;2.40;;
23390;SDS011;11868;45.606;5.302;2023-07-31T07:22:13;7.90;;;2.20;;
23390;SDS011;11868;45.606;5.302;2023-07-31T07:24:38;8.43;;;2.33;;
23390;SDS011;11868;45.606;5.302;2023-07-31T07:27:04;7.35;;;2.10;;
23390;SDS011;11868;45.606;5.302;2023-07-31T07:29:29;6.32;;;2.25;;
23390;SDS011;11868;45.606;5.302;2023-07-31T07:31:55;4.72;;;2.05;;
23390;SDS011;11868;45.606;5.302;2023-07-31T07:34:22;4.35;;;2.00;;
23390;SDS011;11868;45.606;5.302;2023-07-31T07:36:49;8.95;;;2.20;;
23390;SDS011;11868;45.606;5.302;2023-07-31T07:39:14;8.93;;;2.38;;
23390;SDS011;11868;45.606;5.302;2023-07-31T07:41:40;8.15;;;2.15;;
23390;SDS011;11868;45.606;5.302;2023-07-31T07:44:05;6.05;;;1.92;;
23390;SDS011;11868;45.606;5.302;2023-07-31T07:46:31;2.97;;;1.60;;
23390;SDS011;11868;45.606;5.302;2023-07-31T07:48:56;3.92;;;1.83;;
23390;SDS011;11868;45.606;5.302;2023-07-31T07:51:21;4.88;;;1.67;;
23390;SDS011;11868;45.606;5.302;2023-07-31T07:53:46;7.80;;;2.05;;
23390;SDS011;11868;45.606;5.302;2023-07-31T07:56:12;8.00;;;2.08;;
23390;SDS011;11868;45.606;5.302;2023-07-31T07:58:37;3.88;;;1.73;;
23390;SDS011;11868;45.606;5.302;2023-07-31T08:01:02;7.35;;;2.00;;
23390;SDS011;11868;45.606;5.302;2023-07-31T08:03:28;5.78;;;2.08;;
23390;SDS011;11868;45.606;5.302;2023-07-31T08:05:57;5.55;;;1.92;;
23390;SDS011;11868;45.606;5.302;2023-07-31T08:08:23;4.25;;;1.83;;
23390;SDS011;11868;45.606;5.302;2023-07-31T08:10:49;5.95;;;1.70;;
23390;SDS011;11868;45.606;5.302;2023-07-31T08:13:14;6.72;;;2.00;;
23390;SDS011;11868;45.606;5.302;2023-07-31T08:15:42;5.65;;;1.88;;
23390;SDS011;11868;45.606;5.302;2023-07-31T08:18:08;6.97;;;2.03;;
23390;SDS011;11868;45.606;5.302;2023-07-31T08:20:34;6.00;;;1.98;;
23390;SDS011;11868;45.606;5.302;2023-07-31T08:22:59;8.45;;;2.03;;
23390;SDS011;11868;45.606;5.302;2023-07-31T08:25:25;5.72;;;1.75;;
23390;SDS011;11868;45.606;5.302;2023-07-31T08:27:50;5.75;;;1.83;;
23390;SDS011;11868;45.606;5.302;2023-07-31T08:30:17;8.43;;;2.00;;
23390;SDS011;11868;45.606;5.302;2023-07-31T08:32:43;4.93;;;1.80;;
23390;SDS011;11868;45.606;5.302;2023-07-31T08:35:09;4.30;;;1.98;;
23390;SDS011;11868;45.606;5.302;2023-07-31T08:37:34;4.88;;;2.22;;
23390;SDS011;11868;45.606;5.302;2023-07-31T08:39:59;5.28;;;1.70;;
23390;SDS011;11868;45.606;5.302;2023-07-31T08:42:25;5.40;;;2.00;;
23390;SDS011;11868;45.606;5.302;2023-07-31T08:44:50;7.95;;;2.33;;
23390;SDS011;11868;45.606;5.302;2023-07-31T08:47:16;8.82;;;2.65;;
23390;SDS011;11868;45.606;5.302;2023-07-31T08:49:41;6.75;;;2.20;;
23390;SDS011;11868;45.606;5.302;2023-07-31T08:52:07;6.75;;;2.03;;
23390;SDS011;11868;45.606;5.302;2023-07-31T08:54:32;6.28;;;1.90;;
23390;SDS011;11868;45.606;5.302;2023-07-31T08:56:58;4.28;;;1.90;;
23390;SDS011;11868;45.606;5.302;2023-07-31T08:59:25;9.60;;;2.00;;
23390;SDS011;11868;45.606;5.302;2023-07-31T09:01:53;5.55;;;2.15;;
23390;SDS011;11868;45.606;5.302;2023-07-31T09:04:19;4.68;;;1.90;;
23390;SDS011;11868;45.606;5.302;2023-07-31T09:06:45;9.82;;;2.47;;
23390;SDS011;11868;45.606;5.302;2023-07-31T09:09:12;17.55;;;2.28;;
23390;SDS011;11868;45.606;5.302;2023-07-31T09:11:37;7.80;;;1.98;;
23390;SDS011;11868;45.606;5.302;2023-07-31T09:14:02;6.15;;;2.38;;
23390;SDS011;11868;45.606;5.302;2023-07-31T09:16:33;18.35;;;2.55;;
23390;SDS011;11868;45.606;5.302;2023-07-31T09:18:59;16.00;;;2.70;;
23390;SDS011;11868;45.606;5.302;2023-07-31T09:21:26;8.60;;;2.80;;
23390;SDS011;11868;45.606;5.302;2023-07-31T09:23:53;7.00;;;2.20;;
23390;SDS011;11868;45.606;5.302;2023-07-31T09:26:37;6.88;;;2.00;;
23390;SDS011;11868;45.606;5.302;2023-07-31T09:29:06;9.55;;;2.10;;
23390;SDS011;11868;45.606;5.302;2023-07-31T09:34:08;5.70;;;2.05;;
23390;SDS011;11868;45.606;5.302;2023-07-31T09:36:44;6.20;;;2.10;;
23390;SDS011;11868;45.606;5.302;2023-07-31T09:39:11;10.55;;;2.70;;
23390;SDS011;11868;45.606;5.302;2023-07-31T09:41:40;6.13;;;2.40;;
23390;SDS011;11868;45.606;5.302;2023-07-31T09:44:08;6.07;;;2.10;;
23390;SDS011;11868;45.606;5.302;2023-07-31T09:46:37;6.65;;;2.00;;
23390;SDS011;11868;45.606;5.302;2023-07-31T09:49:12;5.05;;;2.00;;
23390;SDS011;11868;45.606;5.302;2023-07-31T09:51:39;5.25;;;2.13;;
23390;SDS011;11868;45.606;5.302;2023-07-31T09:54:12;4.65;;;2.03;;
23390;SDS011;11868;45.606;5.302;2023-07-31T09:56:46;8.00;;;2.30;;
23390;SDS011;11868;45.606;5.302;2023-07-31T09:59:13;8.80;;;2.30;;
23390;SDS011;11868;45.606;5.302;2023-07-31T10:01:40;5.60;;;2.15;;
23390;SDS011;11868;45.606;5.302;2023-07-31T10:04:07;8.20;;;2.05;;
23390;SDS011;11868;45.606;5.302;2023-07-31T10:06:34;7.28;;;2.30;;
23390;SDS011;11868;45.606;5.302;2023-07-31T10:09:00;6.07;;;2.40;;
23390;SDS011;11868;45.606;5.302;2023-07-31T10:11:25;4.20;;;2.00;;
23390;SDS011;11868;45.606;5.302;2023-07-31T10:13:52;5.45;;;2.15;;
23390;SDS011;11868;45.606;5.302;2023-07-31T10:16:18;5.70;;;2.00;;
23390;SDS011;11868;45.606;5.302;2023-07-31T10:18:45;8.52;;;2.40;;
23390;SDS011;11868;45.606;5.302;2023-07-31T10:21:11;7.25;;;2.25;;
23390;SDS011;11868;45.606;5.302;2023-07-31T10:23:36;8.40;;;2.13;;
23390;SDS011;11868;45.606;5.302;2023-07-31T10:26:02;9.30;;;2.40;;
23390;SDS011;11868;45.606;5.302;2023-07-31T10:28:27;6.30;;;1.83;;
23390;SDS011;11868;45.606;5.302;2023-07-31T10:30:54;7.90;;;2.38;;
23390;SDS011;11868;45.606;5.302;2023-07-31T10:33:20;5.32;;;2.08;;
23390;SDS011;11868;45.606;5.302;2023-07-31T10:35:46;8.98;;;2.00;;
23390;SDS011;11868;45.606;5.302;2023-07-31T10:38:13;7.07;;;2.20;;
23390;SDS011;11868;45.606;5.302;2023-07-31T10:40:39;6.38;;;2.13;;
23390;SDS011;11868;45.606;5.302;2023-07-31T10:43:04;6.45;;;2.10;;
23390;SDS011;11868;45.606;5.302;2023-07-31T10:45:37;7.00;;;1.98;;
23390;SDS011;11868;45.606;5.302;2023-07-31T10:48:12;4.80;;;2.05;;
23390;SDS011;11868;45.606;5.302;2023-07-31T10:50:38;7.25;;;2.15;;
23390;SDS011;11868;45.606;5.302;2023-07-31T10:53:22;4.07;;;1.83;;
23390;SDS011;11868;45.606;5.302;2023-07-31T10:55:48;6.45;;;1.90;;
23390;SDS011;11868;45.606;5.302;2023-07-31T10:58:16;5.80;;;1.77;;
23390;SDS011;11868;45.606;5.302;2023-07-31T11:00:44;7.25;;;2.33;;
23390;SDS011;11868;45.606;5.302;2023-07-31T11:05:53;5.68;;;2.15;;
23390;SDS011;11868;45.606;5.302;2023-07-31T11:08:26;6.55;;;1.92;;
23390;SDS011;11868;45.606;5.302;2023-07-31T11:13:27;7.45;;;2.25;;
23390;SDS011;11868;45.606;5.302;2023-07-31T11:16:22;8.25;;;2.33;;
23390;SDS011;11868;45.606;5.302;2023-07-31T11:18:49;6.85;;;2.30;;
23390;SDS011;11868;45.606;5.302;2023-07-31T11:21:16;6.25;;;2.20;;
23390;SDS011;11868;45.606;5.302;2023-07-31T11:23:47;5.90;;;2.00;;
23390;SDS011;11868;45.606;5.302;2023-07-31T11:26:13;5.88;;;2.28;;
23390;SDS011;11868;45.606;5.302;2023-07-31T11:28:39;6.20;;;1.95;;
23390;SDS011;11868;45.606;5.302;2023-07-31T11:31:08;4.75;;;2.03;;
23390;SDS011;11868;45.606;5.302;2023-07-31T11:33:34;4.30;;;2.03;;
23390;SDS011;11868;45.606;5.302;2023-07-31T11:35:59;5.15;;;2.20;;
23390;SDS011;11868;45.606;5.302;2023-07-31T11:38:28;4.43;;;2.10;;
23390;SDS011;11868;45.606;5.302;2023-07-31T11:40:58;6.82;;;2.13;;
23390;SDS011;11868;45.606;5.302;2023-07-31T11:43:25;5.82;;;2.28;;
23390;SDS011;11868;45.606;5.302;2023-07-31T11:45:52;4.53;;;2.15;;
23390;SDS011;11868;45.606;5.302;2023-07-31T11:48:19;4.32;;;2.00;;
23390;SDS011;11868;45.606;5.302;2023-07-31T11:50:45;9.13;;;2.20;;
23390;SDS011;11868;45.606;5.302;2023-07-31T11:53:11;6.38;;;2.22;;
23390;SDS011;11868;45.606;5.302;2023-07-31T11:55:38;5.45;;;2.05;;
23390;SDS011;11868;45.606;5.302;2023-07-31T11:58:03;7.85;;;2.15;;
23390;SDS011;11868;45.606;5.302;2023-07-31T12:00:29;4.85;;;1.98;;
23390;SDS011;11868;45.606;5.302;2023-07-31T12:02:54;10.48;;;2.28;;
23390;SDS011;11868;45.606;5.302;2023-07-31T12:05:20;5.70;;;2.20;;
23390;SDS011;11868;45.606;5.302;2023-07-31T12:07:49;5.78;;;2.08;;
23390;SDS011;11868;45.606;5.302;2023-07-31T12:10:22;6.25;;;1.90;;
23390;SDS011;11868;45.606;5.302;2023-07-31T12:12:59;8.05;;;2.20;;
23390;SDS011;11868;45.606;5.302;2023-07-31T12:15:44;5.97;;;2.38;;
23390;SDS011;11868;45.606;5.302;2023-07-31T12:18:11;6.65;;;2.40;;
23390;SDS011;11868;45.606;5.302;2023-07-31T12:20:41;5.15;;;2.28;;
23390;SDS011;11868;45.606;5.302;2023-07-31T12:23:17;7.35;;;2.08;;
23390;SDS011;11868;45.606;5.302;2023-07-31T12:25:44;6.32;;;2.30;;
23390;SDS011;11868;45.606;5.302;2023-07-31T12:28:10;7.95;;;2.45;;
23390;SDS011;11868;45.606;5.302;2023-07-31T12:30:39;3.40;;;1.90;;
23390;SDS011;11868;45.606;5.302;2023-07-31T12:33:12;6.40;;;1.95;;
23390;SDS011;11868;45.606;5.302;2023-07-31T12:35:46;7.15;;;2.10;;
23390;SDS011;11868;45.606;5.302;2023-07-31T12:38:12;5.18;;;2.33;;
23390;SDS011;11868;45.606;5.302;2023-07-31T12:40:38;5.20;;;2.70;;
23390;SDS011;11868;45.606;5.302;2023-07-31T12:43:05;7.38;;;2.72;;
23390;SDS011;11868;45.606;5.302;2023-07-31T12:45:31;5.53;;;2.10;;
23390;SDS011;11868;45.606;5.302;2023-07-31T12:48:00;5.55;;;2.10;;
23390;SDS011;11868;45.606;5.302;2023-07-31T12:50:26;5.00;;;2.25;;
23390;SDS011;11868;45.606;5.302;2023-07-31T12:52:55;6.85;;;2.72;;
23390;SDS011;11868;45.606;5.302;2023-07-31T12:55:22;6.57;;;2.35;;
23390;SDS011;11868;45.606;5.302;2023-07-31T12:57:47;5.10;;;2.20;;
23390;SDS011;11868;45.606;5.302;2023-07-31T13:00:13;7.38;;;2.40;;
23390;SDS011;11868;45.606;5.302;2023-07-31T13:02:39;4.43;;;2.28;;
23390;SDS011;11868;45.606;5.302;2023-07-31T13:05:04;5.57;;;2.47;;
23390;SDS011;11868;45.606;5.302;2023-07-31T13:07:30;5.70;;;2.15;;
23390;SDS011;11868;45.606;5.302;2023-07-31T13:09:55;6.45;;;2.30;;
23390;SDS011;11868;45.606;5.302;2023-07-31T13:12:20;8.55;;;2.40;;
23390;SDS011;11868;45.606;5.302;2023-07-31T13:14:45;8.65;;;2.40;;
23390;SDS011;11868;45.606;5.302;2023-07-31T13:17:11;6.55;;;2.38;;
23390;SDS011;11868;45.606;5.302;2023-07-31T13:19:36;6.30;;;2.45;;
23390;SDS011;11868;45.606;5.302;2023-07-31T13:22:01;4.18;;;2.20;;
23390;SDS011;11868;45.606;5.302;2023-07-31T13:24:27;5.90;;;2.67;;
23390;SDS011;11868;45.606;5.302;2023-07-31T13:26:52;7.97;;;2.58;;
23390;SDS011;11868;45.606;5.302;2023-07-31T13:29:18;9.55;;;2.78;;
23390;SDS011;11868;45.606;5.302;2023-07-31T13:31:43;6.43;;;2.65;;
23390;SDS011;11868;45.606;5.302;2023-07-31T13:34:08;6.93;;;2.70;;
23390;SDS011;11868;45.606;5.302;2023-07-31T13:36:34;4.53;;;2.55;;
23390;SDS011;11868;45.606;5.302;2023-07-31T13:39:01;5.25;;;2.80;;
23390;SDS011;11868;45.606;5.302;2023-07-31T13:41:27;4.63;;;2.30;;
23390;SDS011;11868;45.606;5.302;2023-07-31T13:43:52;3.80;;;2.10;;
23390;SDS011;11868;45.606;5.302;2023-07-31T13:46:18;6.03;;;2.55;;
23390;SDS011;11868;45.606;5.302;2023-07-31T13:48:43;4.47;;;2.55;;
23390;SDS011;11868;45.606;5.302;2023-07-31T13:51:08;4.38;;;2.42;;
23390;SDS011;11868;45.606;5.302;2023-07-31T13:53:34;5.03;;;2.63;;
23390;SDS011;11868;45.606;5.302;2023-07-31T13:55:59;4.68;;;2.58;;
23390;SDS011;11868;45.606;5.302;2023-07-31T13:58:24;8.35;;;2.63;;
23390;SDS011;11868;45.606;5.302;2023-07-31T14:00:50;6.38;;;2.88;;
23390;SDS011;11868;45.606;5.302;2023-07-31T14:03:15;8.88;;;2.50;;
23390;SDS011;11868;45.606;5.302;2023-07-31T14:05:40;6.00;;;2.90;;
23390;SDS011;11868;45.606;5.302;2023-07-31T14:08:06;5.35;;;2.50;;
23390;SDS011;11868;45.606;5.302;2023-07-31T14:10:31;6.78;;;2.80;;
23390;SDS011;11868;45.606;5.302;2023-07-31T14:12:57;7.43;;;2.30;;
23390;SDS011;11868;45.606;5.302;2023-07-31T14:15:22;7.18;;;2.60;;
23390;SDS011;11868;45.606;5.302;2023-07-31T14:17:47;9.82;;;2.70;;
23390;SDS011;11868;45.606;5.302;2023-07-31T14:20:13;6.55;;;2.63;;
23390;SDS011;11868;45.606;5.302;2023-07-31T14:22:38;5.97;;;2.60;;
23390;SDS011;11868;45.606;5.302;2023-07-31T14:25:04;4.22;;;2.17;;
23390;SDS011;11868;45.606;5.302;2023-07-31T14:27:29;6.82;;;2.85;;
23390;SDS011;11868;45.606;5.302;2023-07-31T14:29:55;5.07;;;2.60;;
23390;SDS011;11868;45.606;5.302;2023-07-31T14:32:21;7.43;;;2.90;;
23390;SDS011;11868;45.606;5.302;2023-07-31T14:34:50;4.70;;;2.67;;
23390;SDS011;11868;45.606;5.302;2023-07-31T14:37:16;6.15;;;2.17;;
23390;SDS011;11868;45.606;5.302;2023-07-31T14:39:41;6.63;;;2.80;;
23390;SDS011;11868;45.606;5.302;2023-07-31T14:42:06;4.55;;;2.97;;
23390;SDS011;11868;45.606;5.302;2023-07-31T14:44:32;5.28;;;2.72;;
23390;SDS011;11868;45.606;5.302;2023-07-31T14:46:57;4.05;;;2.40;;
23390;SDS011;11868;45.606;5.302;2023-07-31T14:49:22;6.97;;;2.75;;
23390;SDS011;11868;45.606;5.302;2023-07-31T14:51:48;7.60;;;3.00;;
23390;SDS011;11868;45.606;5.302;2023-07-31T14:54:13;6.05;;;3.03;;
23390;SDS011;11868;45.606;5.302;2023-07-31T14:56:39;5.72;;;2.55;;
23390;SDS011;11868;45.606;5.302;2023-07-31T14:59:04;5.10;;;2.65;;
23390;SDS011;11868;45.606;5.302;2023-07-31T15:01:29;8.32;;;2.78;;
23390;SDS011;11868;45.606;5.302;2023-07-31T15:03:55;5.47;;;2.65;;